sensor_id;sensor_type;location;lat;lon;timestamp;temperature;humidity
13245;DHT22;6689;53.400;12.486;2023-06-22T00:00:26;19.90;25.40
13245;DHT22;6689;53.400;12.486;2023-06-22T00:02:53;19.80;27.50
13245;DHT22;6689;53.400;12.486;2023-06-22T00:05:20;20.10;26.10
13245;DHT22;6689;53.400;12.486;2023-06-22T00:07:48;19.90;25.90
13245;DHT22;6689;53.400;12.486;2023-06-22T00:10:15;19.90;26.50
13245;DHT22;6689;53.400;12.486;2023-06-22T00:12:42;19.90;26.60
13245;DHT22;6689;53.400;12.486;2023-06-22T00:15:09;19.80;30.50
13245;DHT22;6689;53.400;12.486;2023-06-22T00:17:39;19.70;32.10
13245;DHT22;6689;53.400;12.486;2023-06-22T00:20:08;19.80;35.10
13245;DHT22;6689;53.400;12.486;2023-06-22T00:22:36;19.70;41.10
13245;DHT22;6689;53.400;12.486;2023-06-22T00:25:06;19.70;42.90
13245;DHT22;6689;53.400;12.486;2023-06-22T00:27:34;19.60;42.60
13245;DHT22;6689;53.400;12.486;2023-06-22T00:30:01;19.60;40.50
13245;DHT22;6689;53.400;12.486;2023-06-22T00:32:28;19.60;40.00
13245;DHT22;6689;53.400;12.486;2023-06-22T00:34:57;19.60;39.20
13245;DHT22;6689;53.400;12.486;2023-06-22T00:37:26;19.50;39.40
13245;DHT22;6689;53.400;12.486;2023-06-22T00:39:55;19.50;40.60
13245;DHT22;6689;53.400;12.486;2023-06-22T00:42:23;19.50;42.70
13245;DHT22;6689;53.400;12.486;2023-06-22T00:44:50;19.40;44.00
13245;DHT22;6689;53.400;12.486;2023-06-22T00:47:18;19.40;47.80
13245;DHT22;6689;53.400;12.486;2023-06-22T00:49:47;19.30;53.80
13245;DHT22;6689;53.400;12.486;2023-06-22T00:52:19;19.30;52.80
13245;DHT22;6689;53.400;12.486;2023-06-22T00:54:47;19.30;54.90
13245;DHT22;6689;53.400;12.486;2023-06-22T00:57:16;19.30;55.20
13245;DHT22;6689;53.400;12.486;2023-06-22T00:59:45;19.30;52.80
13245;DHT22;6689;53.400;12.486;2023-06-22T01:02:12;19.20;54.60
13245;DHT22;6689;53.400;12.486;2023-06-22T01:04:39;19.20;57.40
13245;DHT22;6689;53.400;12.486;2023-06-22T01:07:13;19.20;58.90
13245;DHT22;6689;53.400;12.486;2023-06-22T01:09:53;19.20;61.30
13245;DHT22;6689;53.400;12.486;2023-06-22T01:12:25;19.20;64.30
13245;DHT22;6689;53.400;12.486;2023-06-22T01:15:02;19.10;65.60
13245;DHT22;6689;53.400;12.486;2023-06-22T01:17:31;19.10;68.10
13245;DHT22;6689;53.400;12.486;2023-06-22T01:20:00;19.10;68.00
13245;DHT22;6689;53.400;12.486;2023-06-22T01:22:33;19.10;75.30
13245;DHT22;6689;53.400;12.486;2023-06-22T01:25:10;19.00;82.60
13245;DHT22;6689;53.400;12.486;2023-06-22T01:27:46;18.90;88.90
13245;DHT22;6689;53.400;12.486;2023-06-22T01:30:17;19.00;87.40
13245;DHT22;6689;53.400;12.486;2023-06-22T01:32:46;18.90;88.40
13245;DHT22;6689;53.400;12.486;2023-06-22T01:35:15;18.90;81.30
13245;DHT22;6689;53.400;12.486;2023-06-22T01:37:42;18.90;83.70
13245;DHT22;6689;53.400;12.486;2023-06-22T01:40:10;18.90;79.60
13245;DHT22;6689;53.400;12.486;2023-06-22T01:42:38;18.90;82.70
13245;DHT22;6689;53.400;12.486;2023-06-22T01:45:07;18.90;83.80
13245;DHT22;6689;53.400;12.486;2023-06-22T01:47:37;18.80;84.90
13245;DHT22;6689;53.400;12.486;2023-06-22T01:50:05;18.80;89.60
13245;DHT22;6689;53.400;12.486;2023-06-22T01:52:33;18.80;89.10
13245;DHT22;6689;53.400;12.486;2023-06-22T01:55:00;18.70;94.00
13245;DHT22;6689;53.400;12.486;2023-06-22T01:57:28;18.70;97.30
13245;DHT22;6689;53.400;12.486;2023-06-22T02:00:00;18.70;94.50
13245;DHT22;6689;53.400;12.486;2023-06-22T02:02:31;18.60;99.90
13245;DHT22;6689;53.400;12.486;2023-06-22T02:05:05;18.70;99.90
13245;DHT22;6689;53.400;12.486;2023-06-22T02:07:39;18.60;99.90
13245;DHT22;6689;53.400;12.486;2023-06-22T02:10:09;18.60;98.80
13245;DHT22;6689;53.400;12.486;2023-06-22T02:12:38;18.50;99.90
13245;DHT22;6689;53.400;12.486;2023-06-22T02:15:07;18.50;99.90
13245;DHT22;6689;53.400;12.486;2023-06-22T02:17:35;18.50;99.90
13245;DHT22;6689;53.400;12.486;2023-06-22T02:20:05;18.50;99.90
13245;DHT22;6689;53.400;12.486;2023-06-22T02:22:34;18.50;99.90
13245;DHT22;6689;53.400;12.486;2023-06-22T02:25:01;18.50;99.90
13245;DHT22;6689;53.400;12.486;2023-06-22T02:27:31;18.50;99.90
13245;DHT22;6689;53.400;12.486;2023-06-22T02:29:58;18.40;99.90
13245;DHT22;6689;53.400;12.486;2023-06-22T02:32:25;18.40;99.90
13245;DHT22;6689;53.400;12.486;2023-06-22T02:34:52;18.40;99.90
13245;DHT22;6689;53.400;12.486;2023-06-22T02:37:21;18.40;99.90
13245;DHT22;6689;53.400;12.486;2023-06-22T02:39:50;18.30;99.90
13245;DHT22;6689;53.400;12.486;2023-06-22T02:42:18;18.30;99.90
13245;DHT22;6689;53.400;12.486;2023-06-22T02:44:47;18.30;99.90
13245;DHT22;6689;53.400;12.486;2023-06-22T02:47:15;18.30;99.90
13245;DHT22;6689;53.400;12.486;2023-06-22T02:49:42;18.30;99.90
13245;DHT22;6689;53.400;12.486;2023-06-22T02:52:10;18.30;99.90
13245;DHT22;6689;53.400;12.486;2023-06-22T02:54:39;18.30;99.90
13245;DHT22;6689;53.400;12.486;2023-06-22T02:57:06;18.30;99.90
13245;DHT22;6689;53.400;12.486;2023-06-22T02:59:39;18.30;99.90
13245;DHT22;6689;53.400;12.486;2023-06-22T03:02:16;18.30;99.90
13245;DHT22;6689;53.400;12.486;2023-06-22T03:04:46;18.30;99.90
13245;DHT22;6689;53.400;12.486;2023-06-22T03:07:14;18.20;99.90
13245;DHT22;6689;53.400;12.486;2023-06-22T03:09:44;18.20;99.90
13245;DHT22;6689;53.400;12.486;2023-06-22T03:12:11;18.20;99.90
13245;DHT22;6689;53.400;12.486;2023-06-22T03:14:38;18.20;99.90
13245;DHT22;6689;53.400;12.486;2023-06-22T03:17:06;18.20;99.90
13245;DHT22;6689;53.400;12.486;2023-06-22T03:19:33;18.20;99.90
13245;DHT22;6689;53.400;12.486;2023-06-22T03:22:01;18.20;99.90
13245;DHT22;6689;53.400;12.486;2023-06-22T03:24:28;18.20;99.90
13245;DHT22;6689;53.400;12.486;2023-06-22T03:26:57;18.20;99.90
13245;DHT22;6689;53.400;12.486;2023-06-22T03:29:24;18.30;99.90
13245;DHT22;6689;53.400;12.486;2023-06-22T03:31:52;18.30;99.90
13245;DHT22;6689;53.400;12.486;2023-06-22T03:34:19;18.30;99.90
13245;DHT22;6689;53.400;12.486;2023-06-22T03:36:46;18.30;99.90
13245;DHT22;6689;53.400;12.486;2023-06-22T03:39:13;18.30;99.90
13245;DHT22;6689;53.400;12.486;2023-06-22T03:41:40;18.30;99.90
13245;DHT22;6689;53.400;12.486;2023-06-22T03:44:09;18.30;99.90
13245;DHT22;6689;53.400;12.486;2023-06-22T03:46:38;18.40;99.90
13245;DHT22;6689;53.400;12.486;2023-06-22T03:49:05;18.50;99.90
13245;DHT22;6689;53.400;12.486;2023-06-22T03:51:33;18.50;99.90
13245;DHT22;6689;53.400;12.486;2023-06-22T03:54:00;18.50;99.90
13245;DHT22;6689;53.400;12.486;2023-06-22T03:56:27;18.60;99.90
13245;DHT22;6689;53.400;12.486;2023-06-22T03:58:54;18.60;99.90
13245;DHT22;6689;53.400;12.486;2023-06-22T04:01:23;18.70;99.90
13245;DHT22;6689;53.400;12.486;2023-06-22T04:03:50;18.80;99.90
13245;DHT22;6689;53.400;12.486;2023-06-22T04:06:18;18.90;99.90
13245;DHT22;6689;53.400;12.486;2023-06-22T04:08:45;18.90;99.90
13245;DHT22;6689;53.400;12.486;2023-06-22T04:11:16;19.00;99.90
13245;DHT22;6689;53.400;12.486;2023-06-22T04:13:44;19.10;99.90
13245;DHT22;6689;53.400;12.486;2023-06-22T04:16:11;19.20;99.90
13245;DHT22;6689;53.400;12.486;2023-06-22T04:18:40;19.50;99.90
13245;DHT22;6689;53.400;12.486;2023-06-22T04:21:07;19.80;99.90
13245;DHT22;6689;53.400;12.486;2023-06-22T04:23:34;20.10;99.90
13245;DHT22;6689;53.400;12.486;2023-06-22T04:26:01;20.30;99.90
13245;DHT22;6689;53.400;12.486;2023-06-22T04:28:29;20.60;99.90
13245;DHT22;6689;53.400;12.486;2023-06-22T04:31:00;20.80;99.90
13245;DHT22;6689;53.400;12.486;2023-06-22T04:33:28;20.90;98.20
13245;DHT22;6689;53.400;12.486;2023-06-22T04:35:57;21.10;89.30
13245;DHT22;6689;53.400;12.486;2023-06-22T04:38:26;21.10;82.50
13245;DHT22;6689;53.400;12.486;2023-06-22T04:40:54;21.20;76.40
13245;DHT22;6689;53.400;12.486;2023-06-22T04:43:21;21.30;79.30
13245;DHT22;6689;53.400;12.486;2023-06-22T04:45:48;21.30;77.60
13245;DHT22;6689;53.400;12.486;2023-06-22T04:48:18;21.30;83.70
13245;DHT22;6689;53.400;12.486;2023-06-22T04:50:45;21.40;84.30
13245;DHT22;6689;53.400;12.486;2023-06-22T04:53:14;21.50;89.10
13245;DHT22;6689;53.400;12.486;2023-06-22T04:55:41;21.50;87.60
13245;DHT22;6689;53.400;12.486;2023-06-22T04:58:11;21.60;89.20
13245;DHT22;6689;53.400;12.486;2023-06-22T05:00:38;21.60;82.20
13245;DHT22;6689;53.400;12.486;2023-06-22T05:03:06;21.70;83.80
13245;DHT22;6689;53.400;12.486;2023-06-22T05:05:36;21.80;81.20
13245;DHT22;6689;53.400;12.486;2023-06-22T05:08:04;21.90;83.20
13245;DHT22;6689;53.400;12.486;2023-06-22T05:10:34;21.90;78.60
13245;DHT22;6689;53.400;12.486;2023-06-22T05:13:01;21.80;73.30
13245;DHT22;6689;53.400;12.486;2023-06-22T05:15:28;21.90;79.00
13245;DHT22;6689;53.400;12.486;2023-06-22T05:17:58;22.00;78.80
13245;DHT22;6689;53.400;12.486;2023-06-22T05:20:30;22.10;78.90
13245;DHT22;6689;53.400;12.486;2023-06-22T05:22:57;22.20;63.80
13245;DHT22;6689;53.400;12.486;2023-06-22T05:25:24;22.40;61.10
13245;DHT22;6689;53.400;12.486;2023-06-22T05:27:54;22.50;56.00
13245;DHT22;6689;53.400;12.486;2023-06-22T05:30:21;22.60;50.60
13245;DHT22;6689;53.400;12.486;2023-06-22T05:32:48;22.60;62.60
13245;DHT22;6689;53.400;12.486;2023-06-22T05:35:16;22.70;38.90
13245;DHT22;6689;53.400;12.486;2023-06-22T05:37:43;22.90;39.90
13245;DHT22;6689;53.400;12.486;2023-06-22T05:40:11;23.00;38.60
13245;DHT22;6689;53.400;12.486;2023-06-22T05:42:39;23.00;32.40
13245;DHT22;6689;53.400;12.486;2023-06-22T05:45:08;23.20;30.30
13245;DHT22;6689;53.400;12.486;2023-06-22T05:47:36;23.30;30.10
13245;DHT22;6689;53.400;12.486;2023-06-22T05:50:04;23.40;17.90
13245;DHT22;6689;53.400;12.486;2023-06-22T05:52:34;23.50;15.70
13245;DHT22;6689;53.400;12.486;2023-06-22T05:55:02;23.60;10.80
13245;DHT22;6689;53.400;12.486;2023-06-22T05:57:29;23.70;6.70
13245;DHT22;6689;53.400;12.486;2023-06-22T05:59:56;23.80;1.00
13245;DHT22;6689;53.400;12.486;2023-06-22T06:02:25;23.90;1.00
13245;DHT22;6689;53.400;12.486;2023-06-22T06:04:52;24.00;1.00
13245;DHT22;6689;53.400;12.486;2023-06-22T06:07:20;24.10;1.00
13245;DHT22;6689;53.400;12.486;2023-06-22T06:09:47;24.10;1.00
13245;DHT22;6689;53.400;12.486;2023-06-22T06:12:15;24.20;1.00
13245;DHT22;6689;53.400;12.486;2023-06-22T06:14:42;24.30;1.00
13245;DHT22;6689;53.400;12.486;2023-06-22T06:17:09;24.50;1.00
13245;DHT22;6689;53.400;12.486;2023-06-22T06:19:37;24.60;1.00
13245;DHT22;6689;53.400;12.486;2023-06-22T06:22:05;24.80;1.00
13245;DHT22;6689;53.400;12.486;2023-06-22T06:24:32;24.80;1.00
13245;DHT22;6689;53.400;12.486;2023-06-22T06:26:59;24.90;1.00
13245;DHT22;6689;53.400;12.486;2023-06-22T06:29:29;25.10;1.00
13245;DHT22;6689;53.400;12.486;2023-06-22T06:31:56;25.20;1.00
13245;DHT22;6689;53.400;12.486;2023-06-22T06:34:23;25.20;1.00
13245;DHT22;6689;53.400;12.486;2023-06-22T06:36:52;25.10;1.00
13245;DHT22;6689;53.400;12.486;2023-06-22T06:39:19;25.10;1.00
13245;DHT22;6689;53.400;12.486;2023-06-22T06:41:47;25.30;1.00
13245;DHT22;6689;53.400;12.486;2023-06-22T06:44:14;25.20;1.00
13245;DHT22;6689;53.400;12.486;2023-06-22T06:46:41;25.00;1.00
13245;DHT22;6689;53.400;12.486;2023-06-22T06:49:08;25.10;1.00
13245;DHT22;6689;53.400;12.486;2023-06-22T06:51:36;25.10;1.00
13245;DHT22;6689;53.400;12.486;2023-06-22T06:54:04;25.20;1.00
13245;DHT22;6689;53.400;12.486;2023-06-22T06:56:32;25.00;1.00
13245;DHT22;6689;53.400;12.486;2023-06-22T06:58:59;25.30;1.00
13245;DHT22;6689;53.400;12.486;2023-06-22T07:01:27;25.50;1.00
13245;DHT22;6689;53.400;12.486;2023-06-22T07:03:59;25.70;1.00
13245;DHT22;6689;53.400;12.486;2023-06-22T07:06:26;25.80;1.00
13245;DHT22;6689;53.400;12.486;2023-06-22T07:08:57;25.90;1.00
13245;DHT22;6689;53.400;12.486;2023-06-22T07:11:26;25.90;1.00
13245;DHT22;6689;53.400;12.486;2023-06-22T07:13:54;25.80;1.00
13245;DHT22;6689;53.400;12.486;2023-06-22T07:16:21;26.00;1.00
13245;DHT22;6689;53.400;12.486;2023-06-22T07:18:49;26.10;1.00
13245;DHT22;6689;53.400;12.486;2023-06-22T07:21:16;26.30;1.00
13245;DHT22;6689;53.400;12.486;2023-06-22T07:23:43;26.30;1.00
13245;DHT22;6689;53.400;12.486;2023-06-22T07:26:11;26.20;1.00
13245;DHT22;6689;53.400;12.486;2023-06-22T07:28:39;26.30;1.00
13245;DHT22;6689;53.400;12.486;2023-06-22T07:31:07;26.40;1.00
13245;DHT22;6689;53.400;12.486;2023-06-22T07:33:34;26.50;1.00
13245;DHT22;6689;53.400;12.486;2023-06-22T07:36:02;26.50;1.00
13245;DHT22;6689;53.400;12.486;2023-06-22T07:38:33;26.50;1.00
13245;DHT22;6689;53.400;12.486;2023-06-22T07:41:01;26.30;1.00
13245;DHT22;6689;53.400;12.486;2023-06-22T07:43:31;26.20;1.00
13245;DHT22;6689;53.400;12.486;2023-06-22T07:46:00;26.40;1.00
13245;DHT22;6689;53.400;12.486;2023-06-22T07:48:27;26.60;1.00
13245;DHT22;6689;53.400;12.486;2023-06-22T07:50:55;26.80;1.00
13245;DHT22;6689;53.400;12.486;2023-06-22T07:53:22;26.80;1.00
13245;DHT22;6689;53.400;12.486;2023-06-22T07:55:49;26.90;1.00
13245;DHT22;6689;53.400;12.486;2023-06-22T07:58:17;27.00;1.00
13245;DHT22;6689;53.400;12.486;2023-06-22T08:00:46;26.90;1.00
13245;DHT22;6689;53.400;12.486;2023-06-22T08:03:16;27.10;1.00
13245;DHT22;6689;53.400;12.486;2023-06-22T08:05:43;27.30;1.00
13245;DHT22;6689;53.400;12.486;2023-06-22T08:08:10;27.20;1.00
13245;DHT22;6689;53.400;12.486;2023-06-22T08:10:37;27.30;1.00
13245;DHT22;6689;53.400;12.486;2023-06-22T08:13:05;27.40;1.00
13245;DHT22;6689;53.400;12.486;2023-06-22T08:15:34;27.50;1.00
13245;DHT22;6689;53.400;12.486;2023-06-22T08:18:01;27.40;1.00
13245;DHT22;6689;53.400;12.486;2023-06-22T08:20:30;27.40;1.00
13245;DHT22;6689;53.400;12.486;2023-06-22T08:22:58;27.60;1.00
13245;DHT22;6689;53.400;12.486;2023-06-22T08:25:32;27.60;1.00
13245;DHT22;6689;53.400;12.486;2023-06-22T08:28:00;27.60;1.00
13245;DHT22;6689;53.400;12.486;2023-06-22T08:30:27;27.50;1.00
13245;DHT22;6689;53.400;12.486;2023-06-22T08:32:55;27.70;1.00
13245;DHT22;6689;53.400;12.486;2023-06-22T08:35:22;27.80;1.00
13245;DHT22;6689;53.400;12.486;2023-06-22T08:37:51;27.60;1.00
13245;DHT22;6689;53.400;12.486;2023-06-22T08:40:21;27.60;1.00
13245;DHT22;6689;53.400;12.486;2023-06-22T08:42:49;27.80;1.00
13245;DHT22;6689;53.400;12.486;2023-06-22T08:45:16;27.90;1.00
13245;DHT22;6689;53.400;12.486;2023-06-22T08:47:44;27.90;1.00
13245;DHT22;6689;53.400;12.486;2023-06-22T08:50:12;28.00;1.00
13245;DHT22;6689;53.400;12.486;2023-06-22T08:52:40;28.20;1.00
13245;DHT22;6689;53.400;12.486;2023-06-22T08:55:10;28.30;1.00
13245;DHT22;6689;53.400;12.486;2023-06-22T08:57:37;28.40;1.00
13245;DHT22;6689;53.400;12.486;2023-06-22T09:00:06;28.30;1.00
13245;DHT22;6689;53.400;12.486;2023-06-22T09:02:42;28.20;1.00
13245;DHT22;6689;53.400;12.486;2023-06-22T09:05:09;28.30;1.00
13245;DHT22;6689;53.400;12.486;2023-06-22T09:07:36;28.40;1.00
13245;DHT22;6689;53.400;12.486;2023-06-22T09:10:07;28.50;1.00
13245;DHT22;6689;53.400;12.486;2023-06-22T09:12:35;28.30;1.00
13245;DHT22;6689;53.400;12.486;2023-06-22T09:15:04;28.50;1.00
13245;DHT22;6689;53.400;12.486;2023-06-22T09:17:33;28.70;1.00
13245;DHT22;6689;53.400;12.486;2023-06-22T09:20:01;28.70;1.00
13245;DHT22;6689;53.400;12.486;2023-06-22T09:22:31;28.90;1.00
13245;DHT22;6689;53.400;12.486;2023-06-22T09:24:58;28.90;1.00
13245;DHT22;6689;53.400;12.486;2023-06-22T09:27:26;29.00;1.00
13245;DHT22;6689;53.400;12.486;2023-06-22T09:29:55;29.00;1.00
13245;DHT22;6689;53.400;12.486;2023-06-22T09:32:24;28.80;1.00
13245;DHT22;6689;53.400;12.486;2023-06-22T09:34:51;28.90;1.00
13245;DHT22;6689;53.400;12.486;2023-06-22T09:37:18;28.80;1.00
13245;DHT22;6689;53.400;12.486;2023-06-22T09:39:46;28.90;1.00
13245;DHT22;6689;53.400;12.486;2023-06-22T09:42:13;28.90;1.00
13245;DHT22;6689;53.400;12.486;2023-06-22T09:44:40;29.10;1.00
13245;DHT22;6689;53.400;12.486;2023-06-22T09:47:09;29.00;1.00
13245;DHT22;6689;53.400;12.486;2023-06-22T09:49:36;29.00;1.00
13245;DHT22;6689;53.400;12.486;2023-06-22T09:52:04;28.90;1.00
13245;DHT22;6689;53.400;12.486;2023-06-22T09:54:32;29.00;1.00
13245;DHT22;6689;53.400;12.486;2023-06-22T09:56:59;29.20;1.00
13245;DHT22;6689;53.400;12.486;2023-06-22T09:59:26;29.00;1.00
13245;DHT22;6689;53.400;12.486;2023-06-22T10:01:53;29.10;1.00
13245;DHT22;6689;53.400;12.486;2023-06-22T10:04:22;29.30;1.00
13245;DHT22;6689;53.400;12.486;2023-06-22T10:06:50;29.20;1.00
13245;DHT22;6689;53.400;12.486;2023-06-22T10:09:17;29.40;1.00
13245;DHT22;6689;53.400;12.486;2023-06-22T10:11:44;29.60;1.00
13245;DHT22;6689;53.400;12.486;2023-06-22T10:14:12;29.70;1.00
13245;DHT22;6689;53.400;12.486;2023-06-22T10:16:41;29.90;1.00
13245;DHT22;6689;53.400;12.486;2023-06-22T10:19:08;30.20;1.00
13245;DHT22;6689;53.400;12.486;2023-06-22T10:21:37;30.30;1.00
13245;DHT22;6689;53.400;12.486;2023-06-22T10:24:05;30.10;1.00
13245;DHT22;6689;53.400;12.486;2023-06-22T10:26:33;30.30;99.90
13245;DHT22;6689;53.400;12.486;2023-06-22T10:29:00;30.40;99.90
13245;DHT22;6689;53.400;12.486;2023-06-22T10:31:28;30.30;99.90
13245;DHT22;6689;53.400;12.486;2023-06-22T10:33:56;30.20;99.90
13245;DHT22;6689;53.400;12.486;2023-06-22T10:36:23;30.00;99.90
13245;DHT22;6689;53.400;12.486;2023-06-22T10:38:52;30.00;99.90
13245;DHT22;6689;53.400;12.486;2023-06-22T10:41:20;29.90;99.90
13245;DHT22;6689;53.400;12.486;2023-06-22T10:43:47;30.10;99.90
13245;DHT22;6689;53.400;12.486;2023-06-22T10:46:15;30.10;99.90
13245;DHT22;6689;53.400;12.486;2023-06-22T10:48:42;30.20;99.90
13245;DHT22;6689;53.400;12.486;2023-06-22T10:51:10;30.30;99.90
13245;DHT22;6689;53.400;12.486;2023-06-22T10:53:37;30.20;99.90
13245;DHT22;6689;53.400;12.486;2023-06-22T10:56:06;30.40;99.90
13245;DHT22;6689;53.400;12.486;2023-06-22T10:58:33;30.60;99.90
13245;DHT22;6689;53.400;12.486;2023-06-22T11:01:00;30.50;99.90
13245;DHT22;6689;53.400;12.486;2023-06-22T11:03:28;30.70;99.90
13245;DHT22;6689;53.400;12.486;2023-06-22T11:05:56;30.60;99.90
13245;DHT22;6689;53.400;12.486;2023-06-22T11:08:24;30.60;99.90
13245;DHT22;6689;53.400;12.486;2023-06-22T11:10:51;30.70;99.90
13245;DHT22;6689;53.400;12.486;2023-06-22T11:13:20;30.80;99.90
13245;DHT22;6689;53.400;12.486;2023-06-22T11:15:47;30.80;99.90
13245;DHT22;6689;53.400;12.486;2023-06-22T11:18:15;31.00;99.90
13245;DHT22;6689;53.400;12.486;2023-06-22T11:20:42;31.10;99.90
13245;DHT22;6689;53.400;12.486;2023-06-22T11:23:10;31.10;99.90
13245;DHT22;6689;53.400;12.486;2023-06-22T11:25:38;31.20;99.90
13245;DHT22;6689;53.400;12.486;2023-06-22T11:28:05;31.20;99.90
13245;DHT22;6689;53.400;12.486;2023-06-22T11:30:34;31.10;99.90
13245;DHT22;6689;53.400;12.486;2023-06-22T11:33:01;31.10;99.90
13245;DHT22;6689;53.400;12.486;2023-06-22T11:35:29;31.00;99.90
13245;DHT22;6689;53.400;12.486;2023-06-22T11:37:56;31.20;99.90
13245;DHT22;6689;53.400;12.486;2023-06-22T11:40:24;31.20;99.90
13245;DHT22;6689;53.400;12.486;2023-06-22T11:42:51;31.30;99.90
13245;DHT22;6689;53.400;12.486;2023-06-22T11:45:18;31.30;99.90
13245;DHT22;6689;53.400;12.486;2023-06-22T11:47:47;31.00;99.90
13245;DHT22;6689;53.400;12.486;2023-06-22T11:50:14;31.10;99.90
13245;DHT22;6689;53.400;12.486;2023-06-22T11:52:42;31.10;99.90
13245;DHT22;6689;53.400;12.486;2023-06-22T11:55:11;31.20;99.90
13245;DHT22;6689;53.400;12.486;2023-06-22T11:57:53;31.30;99.90
13245;DHT22;6689;53.400;12.486;2023-06-22T12:00:20;31.40;99.90
13245;DHT22;6689;53.400;12.486;2023-06-22T12:02:51;31.50;99.90
13245;DHT22;6689;53.400;12.486;2023-06-22T12:05:19;31.40;99.90
13245;DHT22;6689;53.400;12.486;2023-06-22T12:07:47;31.30;99.90
13245;DHT22;6689;53.400;12.486;2023-06-22T12:10:14;31.10;99.90
13245;DHT22;6689;53.400;12.486;2023-06-22T12:12:42;31.20;99.90
13245;DHT22;6689;53.400;12.486;2023-06-22T12:15:12;31.00;99.90
13245;DHT22;6689;53.400;12.486;2023-06-22T12:17:39;30.90;99.90
13245;DHT22;6689;53.400;12.486;2023-06-22T12:20:09;31.10;99.90
13245;DHT22;6689;53.400;12.486;2023-06-22T12:22:37;31.20;99.90
13245;DHT22;6689;53.400;12.486;2023-06-22T12:25:05;31.30;99.90
13245;DHT22;6689;53.400;12.486;2023-06-22T12:27:33;31.00;99.90
13245;DHT22;6689;53.400;12.486;2023-06-22T12:30:00;31.30;99.90
13245;DHT22;6689;53.400;12.486;2023-06-22T12:32:27;31.40;99.90
13245;DHT22;6689;53.400;12.486;2023-06-22T12:34:55;31.60;99.90
13245;DHT22;6689;53.400;12.486;2023-06-22T12:37:24;31.80;99.90
13245;DHT22;6689;53.400;12.486;2023-06-22T12:39:52;32.10;99.90
13245;DHT22;6689;53.400;12.486;2023-06-22T12:42:20;32.10;99.90
13245;DHT22;6689;53.400;12.486;2023-06-22T12:44:47;32.30;99.90
13245;DHT22;6689;53.400;12.486;2023-06-22T12:47:15;32.30;99.90
13245;DHT22;6689;53.400;12.486;2023-06-22T12:49:42;32.00;99.90
13245;DHT22;6689;53.400;12.486;2023-06-22T12:52:09;31.90;99.90
13245;DHT22;6689;53.400;12.486;2023-06-22T12:54:38;31.70;99.90
13245;DHT22;6689;53.400;12.486;2023-06-22T12:57:06;31.20;99.90
13245;DHT22;6689;53.400;12.486;2023-06-22T12:59:33;31.30;99.90
13245;DHT22;6689;53.400;12.486;2023-06-22T13:02:00;31.40;99.90
13245;DHT22;6689;53.400;12.486;2023-06-22T13:04:28;31.40;99.90
13245;DHT22;6689;53.400;12.486;2023-06-22T13:06:55;31.40;99.90
13245;DHT22;6689;53.400;12.486;2023-06-22T13:09:22;31.50;99.90
13245;DHT22;6689;53.400;12.486;2023-06-22T13:11:51;31.60;99.90
13245;DHT22;6689;53.400;12.486;2023-06-22T13:14:19;31.50;99.90
13245;DHT22;6689;53.400;12.486;2023-06-22T13:16:46;31.50;99.90
13245;DHT22;6689;53.400;12.486;2023-06-22T13:19:13;31.30;99.90
13245;DHT22;6689;53.400;12.486;2023-06-22T13:21:41;31.30;99.90
13245;DHT22;6689;53.400;12.486;2023-06-22T13:24:08;31.10;99.90
13245;DHT22;6689;53.400;12.486;2023-06-22T13:26:36;30.80;99.90
13245;DHT22;6689;53.400;12.486;2023-06-22T13:29:04;30.90;99.90
13245;DHT22;6689;53.400;12.486;2023-06-22T13:31:31;30.70;99.90
13245;DHT22;6689;53.400;12.486;2023-06-22T13:33:59;30.70;99.90
13245;DHT22;6689;53.400;12.486;2023-06-22T13:36:26;30.80;99.90
13245;DHT22;6689;53.400;12.486;2023-06-22T13:38:56;30.70;99.90
13245;DHT22;6689;53.400;12.486;2023-06-22T13:41:23;30.80;99.90
13245;DHT22;6689;53.400;12.486;2023-06-22T13:43:51;30.80;99.90
13245;DHT22;6689;53.400;12.486;2023-06-22T13:46:20;30.40;99.90
13245;DHT22;6689;53.400;12.486;2023-06-22T13:48:47;30.60;99.90
13245;DHT22;6689;53.400;12.486;2023-06-22T13:51:15;30.60;99.90
13245;DHT22;6689;53.400;12.486;2023-06-22T13:53:42;30.90;99.90
13245;DHT22;6689;53.400;12.486;2023-06-22T13:56:10;30.70;99.90
13245;DHT22;6689;53.400;12.486;2023-06-22T13:58:37;30.80;99.90
13245;DHT22;6689;53.400;12.486;2023-06-22T14:01:04;30.80;99.90
13245;DHT22;6689;53.400;12.486;2023-06-22T14:03:33;30.60;99.90
13245;DHT22;6689;53.400;12.486;2023-06-22T14:06:00;30.60;99.90
13245;DHT22;6689;53.400;12.486;2023-06-22T14:08:27;30.60;99.90
13245;DHT22;6689;53.400;12.486;2023-06-22T14:10:54;30.50;99.90
13245;DHT22;6689;53.400;12.486;2023-06-22T14:13:22;30.50;99.90
13245;DHT22;6689;53.400;12.486;2023-06-22T14:15:49;30.50;99.90
13245;DHT22;6689;53.400;12.486;2023-06-22T14:18:18;30.40;99.90
13245;DHT22;6689;53.400;12.486;2023-06-22T14:20:47;30.30;99.90
13245;DHT22;6689;53.400;12.486;2023-06-22T14:23:14;29.90;99.90
13245;DHT22;6689;53.400;12.486;2023-06-22T14:25:41;29.80;99.90
13245;DHT22;6689;53.400;12.486;2023-06-22T14:28:08;29.80;99.90
13245;DHT22;6689;53.400;12.486;2023-06-22T14:30:36;29.70;99.90
13245;DHT22;6689;53.400;12.486;2023-06-22T14:33:03;29.70;99.90
13245;DHT22;6689;53.400;12.486;2023-06-22T14:35:30;29.80;99.90
13245;DHT22;6689;53.400;12.486;2023-06-22T14:37:59;29.90;99.90
13245;DHT22;6689;53.400;12.486;2023-06-22T14:40:26;29.90;99.90
13245;DHT22;6689;53.400;12.486;2023-06-22T14:42:53;30.00;99.90
13245;DHT22;6689;53.400;12.486;2023-06-22T14:45:22;29.90;99.90
13245;DHT22;6689;53.400;12.486;2023-06-22T14:47:50;29.90;99.90
13245;DHT22;6689;53.400;12.486;2023-06-22T14:50:17;29.90;99.90
13245;DHT22;6689;53.400;12.486;2023-06-22T14:52:44;29.90;99.90
13245;DHT22;6689;53.400;12.486;2023-06-22T14:55:13;29.90;99.90
13245;DHT22;6689;53.400;12.486;2023-06-22T14:57:40;29.90;99.90
13245;DHT22;6689;53.400;12.486;2023-06-22T15:00:08;29.80;99.90
13245;DHT22;6689;53.400;12.486;2023-06-22T15:02:35;29.80;99.90
13245;DHT22;6689;53.400;12.486;2023-06-22T15:05:03;29.80;99.90
13245;DHT22;6689;53.400;12.486;2023-06-22T15:07:44;29.70;99.90
13245;DHT22;6689;53.400;12.486;2023-06-22T15:10:13;29.60;99.90
13245;DHT22;6689;53.400;12.486;2023-06-22T15:12:40;29.50;99.90
13245;DHT22;6689;53.400;12.486;2023-06-22T15:15:08;29.50;99.90
13245;DHT22;6689;53.400;12.486;2023-06-22T15:17:35;29.30;99.90
13245;DHT22;6689;53.400;12.486;2023-06-22T15:20:03;29.40;99.90
13245;DHT22;6689;53.400;12.486;2023-06-22T15:22:31;29.30;99.90
13245;DHT22;6689;53.400;12.486;2023-06-22T15:25:01;29.30;99.90
13245;DHT22;6689;53.400;12.486;2023-06-22T15:27:30;29.30;99.90
13245;DHT22;6689;53.400;12.486;2023-06-22T15:29:57;29.30;99.90
13245;DHT22;6689;53.400;12.486;2023-06-22T15:32:25;29.30;99.90
13245;DHT22;6689;53.400;12.486;2023-06-22T15:34:53;29.20;99.90
13245;DHT22;6689;53.400;12.486;2023-06-22T15:37:21;29.30;99.90
13245;DHT22;6689;53.400;12.486;2023-06-22T15:39:48;29.20;99.90